Terminal Aerodrome Forecast
Issued by NWS

Home | Current Version | Previous Version | Text Only | Print | Product List | Glossary Off
Versions: 1 2 3 4 5 6 7 8 9 10 11 12

308
FTUS43 KICT 071124
TAFSLN
TAF
KSLN 071124Z 0712/0812 30008KT P6SM BKN200
     FM071500 31012KT P6SM BKN200
     FM071700 31019G27KT P6SM BKN200
     FM071900 32026G35KT P6SM SCT200
     FM080200 31018KT P6SM SCT250=

USA.gov is the U.S. government's official web portal to all federal, state and local government web resources and services.